sensor_id;sensor_type;location;lat;lon;timestamp;P1;durP1;ratioP1;P2;durP2;ratioP2
2892;SDS011;1456;51.840;12.184;2023-05-08T00:01:17;0.40;;;0.40;;
2892;SDS011;1456;51.840;12.184;2023-05-08T00:03:43;0.67;;;0.67;;
2892;SDS011;1456;51.840;12.184;2023-05-08T00:06:10;1.37;;;0.50;;
2892;SDS011;1456;51.840;12.184;2023-05-08T00:08:36;0.40;;;0.40;;
2892;SDS011;1456;51.840;12.184;2023-05-08T00:11:02;0.70;;;0.70;;
2892;SDS011;1456;51.840;12.184;2023-05-08T00:13:28;1.90;;;0.70;;
2892;SDS011;1456;51.840;12.184;2023-05-08T00:15:55;1.20;;;1.20;;
2892;SDS011;1456;51.840;12.184;2023-05-08T00:18:21;0.90;;;0.90;;
2892;SDS011;1456;51.840;12.184;2023-05-08T00:20:47;4.63;;;0.47;;
2892;SDS011;1456;51.840;12.184;2023-05-08T00:23:14;1.47;;;1.40;;
2892;SDS011;1456;51.840;12.184;2023-05-08T00:25:40;0.40;;;0.40;;
2892;SDS011;1456;51.840;12.184;2023-05-08T00:30:34;2.00;;;1.60;;
2892;SDS011;1456;51.840;12.184;2023-05-08T00:33:00;2.17;;;2.07;;
2892;SDS011;1456;51.840;12.184;2023-05-08T00:35:25;1.40;;;1.30;;
2892;SDS011;1456;51.840;12.184;2023-05-08T00:37:51;1.00;;;0.77;;
2892;SDS011;1456;51.840;12.184;2023-05-08T00:40:17;1.43;;;0.50;;
2892;SDS011;1456;51.840;12.184;2023-05-08T00:42:42;1.03;;;1.03;;
2892;SDS011;1456;51.840;12.184;2023-05-08T00:45:09;0.50;;;0.50;;
2892;SDS011;1456;51.840;12.184;2023-05-08T00:47:35;0.40;;;0.40;;
2892;SDS011;1456;51.840;12.184;2023-05-08T00:50:01;1.37;;;1.37;;
2892;SDS011;1456;51.840;12.184;2023-05-08T00:52:28;0.63;;;0.40;;
2892;SDS011;1456;51.840;12.184;2023-05-08T00:54:55;0.63;;;0.63;;
2892;SDS011;1456;51.840;12.184;2023-05-08T00:57:23;0.90;;;0.90;;
2892;SDS011;1456;51.840;12.184;2023-05-08T00:59:50;1.13;;;0.80;;
2892;SDS011;1456;51.840;12.184;2023-05-08T01:02:17;0.50;;;0.50;;
2892;SDS011;1456;51.840;12.184;2023-05-08T01:04:45;33.57;;;2.80;;
2892;SDS011;1456;51.840;12.184;2023-05-08T01:07:12;1.13;;;1.03;;
2892;SDS011;1456;51.840;12.184;2023-05-08T01:09:37;0.60;;;0.60;;
2892;SDS011;1456;51.840;12.184;2023-05-08T01:14:57;2.83;;;0.87;;
2892;SDS011;1456;51.840;12.184;2023-05-08T01:20:55;1.03;;;0.93;;
2892;SDS011;1456;51.840;12.184;2023-05-08T01:25:55;0.53;;;0.53;;
2892;SDS011;1456;51.840;12.184;2023-05-08T01:33:44;0.87;;;0.87;;
2892;SDS011;1456;51.840;12.184;2023-05-08T01:41:26;1.67;;;0.33;;
2892;SDS011;1456;51.840;12.184;2023-05-08T01:43:57;11.90;;;2.13;;
2892;SDS011;1456;51.840;12.184;2023-05-08T01:46:39;2.13;;;0.57;;
2892;SDS011;1456;51.840;12.184;2023-05-08T01:49:29;0.40;;;0.40;;
2892;SDS011;1456;51.840;12.184;2023-05-08T01:55:10;0.60;;;0.60;;
2892;SDS011;1456;51.840;12.184;2023-05-08T01:57:46;0.77;;;0.77;;
2892;SDS011;1456;51.840;12.184;2023-05-08T02:00:16;0.30;;;0.30;;
2892;SDS011;1456;51.840;12.184;2023-05-08T02:02:44;0.73;;;0.50;;
2892;SDS011;1456;51.840;12.184;2023-05-08T02:05:13;0.30;;;0.30;;
2892;SDS011;1456;51.840;12.184;2023-05-08T02:07:45;0.47;;;0.47;;
2892;SDS011;1456;51.840;12.184;2023-05-08T02:10:13;1.00;;;0.40;;
2892;SDS011;1456;51.840;12.184;2023-05-08T02:12:40;0.40;;;0.40;;
2892;SDS011;1456;51.840;12.184;2023-05-08T02:15:08;0.97;;;0.97;;
2892;SDS011;1456;51.840;12.184;2023-05-08T02:17:36;0.40;;;0.40;;
2892;SDS011;1456;51.840;12.184;2023-05-08T02:20:05;0.50;;;0.40;;
2892;SDS011;1456;51.840;12.184;2023-05-08T02:22:31;0.40;;;0.40;;
2892;SDS011;1456;51.840;12.184;2023-05-08T02:24:59;0.57;;;0.50;;
2892;SDS011;1456;51.840;12.184;2023-05-08T02:27:27;0.40;;;0.40;;
2892;SDS011;1456;51.840;12.184;2023-05-08T02:29:54;2.10;;;0.87;;
2892;SDS011;1456;51.840;12.184;2023-05-08T02:32:21;0.40;;;0.40;;
2892;SDS011;1456;51.840;12.184;2023-05-08T02:34:50;0.60;;;0.60;;
2892;SDS011;1456;51.840;12.184;2023-05-08T02:37:19;2.30;;;0.70;;
2892;SDS011;1456;51.840;12.184;2023-05-08T02:39:46;0.30;;;0.30;;
2892;SDS011;1456;51.840;12.184;2023-05-08T02:42:13;0.80;;;0.80;;
2892;SDS011;1456;51.840;12.184;2023-05-08T02:44:39;0.30;;;0.30;;
2892;SDS011;1456;51.840;12.184;2023-05-08T02:47:11;1.10;;;1.10;;
2892;SDS011;1456;51.840;12.184;2023-05-08T02:49:52;0.57;;;0.57;;
2892;SDS011;1456;51.840;12.184;2023-05-08T02:52:26;0.60;;;0.60;;
2892;SDS011;1456;51.840;12.184;2023-05-08T02:54:59;0.73;;;0.67;;
2892;SDS011;1456;51.840;12.184;2023-05-08T03:00:36;0.30;;;0.30;;
2892;SDS011;1456;51.840;12.184;2023-05-08T03:03:22;0.30;;;0.30;;
2892;SDS011;1456;51.840;12.184;2023-05-08T03:05:55;0.80;;;0.80;;
2892;SDS011;1456;51.840;12.184;2023-05-08T03:08:26;0.40;;;0.40;;
2892;SDS011;1456;51.840;12.184;2023-05-08T03:10:57;1.13;;;0.80;;
2892;SDS011;1456;51.840;12.184;2023-05-08T03:13:26;0.77;;;0.77;;
2892;SDS011;1456;51.840;12.184;2023-05-08T03:16:00;0.50;;;0.43;;
2892;SDS011;1456;51.840;12.184;2023-05-08T03:18:30;1.40;;;1.30;;
2892;SDS011;1456;51.840;12.184;2023-05-08T03:20:59;0.40;;;0.40;;
2892;SDS011;1456;51.840;12.184;2023-05-08T03:23:27;0.30;;;0.30;;
2892;SDS011;1456;51.840;12.184;2023-05-08T03:25:56;0.50;;;0.50;;
2892;SDS011;1456;51.840;12.184;2023-05-08T03:28:23;1.13;;;1.13;;
2892;SDS011;1456;51.840;12.184;2023-05-08T03:30:52;0.53;;;0.53;;
2892;SDS011;1456;51.840;12.184;2023-05-08T03:33:21;0.50;;;0.50;;
2892;SDS011;1456;51.840;12.184;2023-05-08T03:35:49;0.70;;;0.70;;
2892;SDS011;1456;51.840;12.184;2023-05-08T03:38:17;0.67;;;0.30;;
2892;SDS011;1456;51.840;12.184;2023-05-08T03:40:43;2.57;;;1.33;;
2892;SDS011;1456;51.840;12.184;2023-05-08T03:43:09;0.70;;;0.70;;
2892;SDS011;1456;51.840;12.184;2023-05-08T03:45:37;0.60;;;0.60;;
2892;SDS011;1456;51.840;12.184;2023-05-08T03:48:04;0.50;;;0.50;;
2892;SDS011;1456;51.840;12.184;2023-05-08T03:50:35;0.60;;;0.60;;
2892;SDS011;1456;51.840;12.184;2023-05-08T03:55:31;0.63;;;0.63;;
2892;SDS011;1456;51.840;12.184;2023-05-08T03:58:16;0.60;;;0.60;;
2892;SDS011;1456;51.840;12.184;2023-05-08T04:06:28;3.07;;;0.60;;
2892;SDS011;1456;51.840;12.184;2023-05-08T04:09:07;0.40;;;0.40;;
2892;SDS011;1456;51.840;12.184;2023-05-08T04:14:23;1.00;;;0.90;;
2892;SDS011;1456;51.840;12.184;2023-05-08T04:16:52;1.27;;;0.67;;
2892;SDS011;1456;51.840;12.184;2023-05-08T04:19:27;0.43;;;0.43;;
2892;SDS011;1456;51.840;12.184;2023-05-08T04:21:58;1.37;;;1.10;;
2892;SDS011;1456;51.840;12.184;2023-05-08T04:24:29;1.63;;;1.27;;
2892;SDS011;1456;51.840;12.184;2023-05-08T04:26:57;3.70;;;1.70;;
2892;SDS011;1456;51.840;12.184;2023-05-08T04:29:25;0.73;;;0.73;;
2892;SDS011;1456;51.840;12.184;2023-05-08T04:31:51;3.07;;;1.90;;
2892;SDS011;1456;51.840;12.184;2023-05-08T04:34:17;1.57;;;0.70;;
2892;SDS011;1456;51.840;12.184;2023-05-08T04:36:44;0.40;;;0.40;;
2892;SDS011;1456;51.840;12.184;2023-05-08T04:39:13;0.70;;;0.70;;
2892;SDS011;1456;51.840;12.184;2023-05-08T04:41:41;0.50;;;0.50;;
2892;SDS011;1456;51.840;12.184;2023-05-08T04:44:07;0.50;;;0.50;;
2892;SDS011;1456;51.840;12.184;2023-05-08T04:46:33;2.93;;;0.83;;
2892;SDS011;1456;51.840;12.184;2023-05-08T04:48:58;2.00;;;1.90;;
2892;SDS011;1456;51.840;12.184;2023-05-08T04:51:25;1.23;;;1.13;;
2892;SDS011;1456;51.840;12.184;2023-05-08T04:53:52;1.17;;;1.07;;
2892;SDS011;1456;51.840;12.184;2023-05-08T04:58:46;0.70;;;0.60;;
2892;SDS011;1456;51.840;12.184;2023-05-08T05:01:12;1.20;;;1.10;;
2892;SDS011;1456;51.840;12.184;2023-05-08T05:03:39;0.40;;;0.30;;
2892;SDS011;1456;51.840;12.184;2023-05-08T05:06:05;0.77;;;0.77;;
2892;SDS011;1456;51.840;12.184;2023-05-08T05:08:31;1.47;;;1.00;;
2892;SDS011;1456;51.840;12.184;2023-05-08T05:10:57;0.90;;;0.80;;
2892;SDS011;1456;51.840;12.184;2023-05-08T05:15:54;0.57;;;0.40;;
2892;SDS011;1456;51.840;12.184;2023-05-08T05:18:20;3.23;;;2.63;;
2892;SDS011;1456;51.840;12.184;2023-05-08T05:20:47;0.63;;;0.63;;
2892;SDS011;1456;51.840;12.184;2023-05-08T05:23:13;1.53;;;1.43;;
2892;SDS011;1456;51.840;12.184;2023-05-08T05:25:40;0.60;;;0.60;;
2892;SDS011;1456;51.840;12.184;2023-05-08T05:28:05;0.77;;;0.70;;
2892;SDS011;1456;51.840;12.184;2023-05-08T05:30:32;0.90;;;0.90;;
2892;SDS011;1456;51.840;12.184;2023-05-08T05:32:59;0.60;;;0.60;;
2892;SDS011;1456;51.840;12.184;2023-05-08T05:35:25;0.70;;;0.70;;
2892;SDS011;1456;51.840;12.184;2023-05-08T05:37:50;0.73;;;0.73;;
2892;SDS011;1456;51.840;12.184;2023-05-08T05:40:16;0.97;;;0.90;;
2892;SDS011;1456;51.840;12.184;2023-05-08T05:42:42;0.93;;;0.83;;
2892;SDS011;1456;51.840;12.184;2023-05-08T05:45:13;0.90;;;0.60;;
2892;SDS011;1456;51.840;12.184;2023-05-08T05:47:44;0.40;;;0.40;;
2892;SDS011;1456;51.840;12.184;2023-05-08T05:50:13;1.10;;;0.90;;
2892;SDS011;1456;51.840;12.184;2023-05-08T05:52:40;0.90;;;0.90;;
2892;SDS011;1456;51.840;12.184;2023-05-08T05:55:05;0.57;;;0.57;;
2892;SDS011;1456;51.840;12.184;2023-05-08T05:57:32;0.63;;;0.63;;
2892;SDS011;1456;51.840;12.184;2023-05-08T05:59:57;1.83;;;1.83;;
2892;SDS011;1456;51.840;12.184;2023-05-08T06:02:26;1.00;;;1.00;;
2892;SDS011;1456;51.840;12.184;2023-05-08T06:04:51;0.87;;;0.87;;
2892;SDS011;1456;51.840;12.184;2023-05-08T06:07:17;1.23;;;1.23;;
2892;SDS011;1456;51.840;12.184;2023-05-08T06:09:44;1.33;;;1.33;;
2892;SDS011;1456;51.840;12.184;2023-05-08T06:12:10;3.30;;;1.07;;
2892;SDS011;1456;51.840;12.184;2023-05-08T06:14:36;0.63;;;0.63;;
2892;SDS011;1456;51.840;12.184;2023-05-08T06:17:08;1.10;;;1.10;;
2892;SDS011;1456;51.840;12.184;2023-05-08T06:19:34;2.10;;;0.83;;
2892;SDS011;1456;51.840;12.184;2023-05-08T06:22:01;0.77;;;0.77;;
2892;SDS011;1456;51.840;12.184;2023-05-08T06:24:27;0.93;;;0.90;;
2892;SDS011;1456;51.840;12.184;2023-05-08T06:26:55;1.27;;;1.00;;
2892;SDS011;1456;51.840;12.184;2023-05-08T06:29:21;0.87;;;0.87;;
2892;SDS011;1456;51.840;12.184;2023-05-08T06:31:46;1.37;;;1.37;;
2892;SDS011;1456;51.840;12.184;2023-05-08T06:34:12;2.43;;;0.90;;
2892;SDS011;1456;51.840;12.184;2023-05-08T06:36:38;0.80;;;0.80;;
2892;SDS011;1456;51.840;12.184;2023-05-08T06:39:03;1.33;;;1.33;;
2892;SDS011;1456;51.840;12.184;2023-05-08T06:41:31;1.27;;;1.17;;
2892;SDS011;1456;51.840;12.184;2023-05-08T06:43:57;1.47;;;1.47;;
2892;SDS011;1456;51.840;12.184;2023-05-08T06:46:22;1.30;;;1.30;;
2892;SDS011;1456;51.840;12.184;2023-05-08T06:48:49;1.83;;;1.83;;
2892;SDS011;1456;51.840;12.184;2023-05-08T06:51:16;1.10;;;1.10;;
2892;SDS011;1456;51.840;12.184;2023-05-08T06:53:41;1.30;;;1.30;;
2892;SDS011;1456;51.840;12.184;2023-05-08T06:56:07;1.83;;;1.73;;
2892;SDS011;1456;51.840;12.184;2023-05-08T06:58:33;1.10;;;1.10;;
2892;SDS011;1456;51.840;12.184;2023-05-08T07:00:59;2.23;;;2.17;;
2892;SDS011;1456;51.840;12.184;2023-05-08T07:03:28;1.93;;;1.93;;
2892;SDS011;1456;51.840;12.184;2023-05-08T07:05:54;1.97;;;1.97;;
2892;SDS011;1456;51.840;12.184;2023-05-08T07:08:21;1.70;;;1.70;;
2892;SDS011;1456;51.840;12.184;2023-05-08T07:10:47;2.50;;;2.40;;
2892;SDS011;1456;51.840;12.184;2023-05-08T07:13:15;2.17;;;2.13;;
2892;SDS011;1456;51.840;12.184;2023-05-08T07:15:46;4.73;;;4.33;;
2892;SDS011;1456;51.840;12.184;2023-05-08T07:18:11;4.00;;;3.90;;
2892;SDS011;1456;51.840;12.184;2023-05-08T07:20:37;2.73;;;2.73;;
2892;SDS011;1456;51.840;12.184;2023-05-08T07:23:03;25.27;;;4.80;;
2892;SDS011;1456;51.840;12.184;2023-05-08T07:25:28;4.70;;;4.50;;
2892;SDS011;1456;51.840;12.184;2023-05-08T07:27:54;4.33;;;4.23;;
2892;SDS011;1456;51.840;12.184;2023-05-08T07:30:21;5.00;;;5.00;;
2892;SDS011;1456;51.840;12.184;2023-05-08T07:32:46;6.40;;;6.30;;
2892;SDS011;1456;51.840;12.184;2023-05-08T07:35:12;5.90;;;5.80;;
2892;SDS011;1456;51.840;12.184;2023-05-08T07:37:40;6.30;;;6.20;;
2892;SDS011;1456;51.840;12.184;2023-05-08T07:40:07;5.40;;;5.40;;
2892;SDS011;1456;51.840;12.184;2023-05-08T07:42:39;7.33;;;7.20;;
2892;SDS011;1456;51.840;12.184;2023-05-08T07:45:10;7.23;;;7.13;;
2892;SDS011;1456;51.840;12.184;2023-05-08T07:47:37;6.37;;;6.27;;
2892;SDS011;1456;51.840;12.184;2023-05-08T07:50:14;6.60;;;6.50;;
2892;SDS011;1456;51.840;12.184;2023-05-08T07:52:39;5.80;;;5.80;;
2892;SDS011;1456;51.840;12.184;2023-05-08T07:55:05;7.53;;;7.43;;
2892;SDS011;1456;51.840;12.184;2023-05-08T07:57:39;4.80;;;4.70;;
2892;SDS011;1456;51.840;12.184;2023-05-08T08:00:06;8.00;;;7.90;;
2892;SDS011;1456;51.840;12.184;2023-05-08T08:02:33;7.47;;;7.37;;
2892;SDS011;1456;51.840;12.184;2023-05-08T08:05:02;8.20;;;8.10;;
2892;SDS011;1456;51.840;12.184;2023-05-08T08:07:28;8.90;;;8.80;;
2892;SDS011;1456;51.840;12.184;2023-05-08T08:09:54;8.80;;;8.70;;
2892;SDS011;1456;51.840;12.184;2023-05-08T08:12:20;9.83;;;9.63;;
2892;SDS011;1456;51.840;12.184;2023-05-08T08:14:48;9.33;;;9.23;;
2892;SDS011;1456;51.840;12.184;2023-05-08T08:17:15;9.60;;;9.40;;
2892;SDS011;1456;51.840;12.184;2023-05-08T08:19:41;9.57;;;9.47;;
2892;SDS011;1456;51.840;12.184;2023-05-08T08:22:07;9.00;;;8.90;;
2892;SDS011;1456;51.840;12.184;2023-05-08T08:24:34;9.60;;;9.50;;
2892;SDS011;1456;51.840;12.184;2023-05-08T08:27:00;9.03;;;8.93;;
2892;SDS011;1456;51.840;12.184;2023-05-08T08:29:26;11.90;;;11.60;;
2892;SDS011;1456;51.840;12.184;2023-05-08T08:31:52;11.53;;;11.33;;
2892;SDS011;1456;51.840;12.184;2023-05-08T08:34:22;11.40;;;11.20;;
2892;SDS011;1456;51.840;12.184;2023-05-08T08:39:16;11.60;;;11.40;;
2892;SDS011;1456;51.840;12.184;2023-05-08T08:41:42;11.20;;;11.00;;
2892;SDS011;1456;51.840;12.184;2023-05-08T08:44:08;11.13;;;11.03;;
2892;SDS011;1456;51.840;12.184;2023-05-08T08:46:33;11.53;;;11.27;;
2892;SDS011;1456;51.840;12.184;2023-05-08T08:49:02;12.73;;;12.53;;
2892;SDS011;1456;51.840;12.184;2023-05-08T08:51:35;12.93;;;12.73;;
2892;SDS011;1456;51.840;12.184;2023-05-08T08:54:08;7.70;;;7.60;;
2892;SDS011;1456;51.840;12.184;2023-05-08T08:56:40;8.70;;;8.60;;
2892;SDS011;1456;51.840;12.184;2023-05-08T08:59:08;12.83;;;12.63;;
2892;SDS011;1456;51.840;12.184;2023-05-08T09:01:37;12.17;;;11.97;;
2892;SDS011;1456;51.840;12.184;2023-05-08T09:04:06;12.73;;;12.53;;
2892;SDS011;1456;51.840;12.184;2023-05-08T09:06:37;13.20;;;13.00;;
2892;SDS011;1456;51.840;12.184;2023-05-08T09:11:37;13.20;;;12.90;;
2892;SDS011;1456;51.840;12.184;2023-05-08T09:14:05;12.90;;;12.70;;
2892;SDS011;1456;51.840;12.184;2023-05-08T09:16:32;13.30;;;13.10;;
2892;SDS011;1456;51.840;12.184;2023-05-08T09:18:57;12.90;;;12.70;;
2892;SDS011;1456;51.840;12.184;2023-05-08T09:21:25;14.27;;;13.97;;
2892;SDS011;1456;51.840;12.184;2023-05-08T09:23:57;12.83;;;12.63;;
2892;SDS011;1456;51.840;12.184;2023-05-08T09:26:26;7.70;;;7.60;;
2892;SDS011;1456;51.840;12.184;2023-05-08T09:29:16;12.20;;;12.00;;
2892;SDS011;1456;51.840;12.184;2023-05-08T09:31:44;14.80;;;14.50;;
2892;SDS011;1456;51.840;12.184;2023-05-08T09:34:23;13.97;;;13.77;;
2892;SDS011;1456;51.840;12.184;2023-05-08T09:39:29;13.80;;;13.60;;
2892;SDS011;1456;51.840;12.184;2023-05-08T09:41:58;15.83;;;15.50;;
2892;SDS011;1456;51.840;12.184;2023-05-08T09:44:46;15.37;;;15.07;;
2892;SDS011;1456;51.840;12.184;2023-05-08T09:47:13;14.53;;;14.33;;
2892;SDS011;1456;51.840;12.184;2023-05-08T09:49:55;14.70;;;14.50;;
2892;SDS011;1456;51.840;12.184;2023-05-08T09:52:27;9.00;;;8.80;;
2892;SDS011;1456;51.840;12.184;2023-05-08T09:57:35;15.60;;;15.30;;
2892;SDS011;1456;51.840;12.184;2023-05-08T10:02:31;16.53;;;16.13;;
2892;SDS011;1456;51.840;12.184;2023-05-08T10:04:58;15.17;;;14.97;;
2892;SDS011;1456;51.840;12.184;2023-05-08T10:07:29;17.37;;;16.97;;
2892;SDS011;1456;51.840;12.184;2023-05-08T10:10:02;13.53;;;13.30;;
2892;SDS011;1456;51.840;12.184;2023-05-08T10:12:30;10.50;;;10.30;;
2892;SDS011;1456;51.840;12.184;2023-05-08T10:14:56;17.70;;;17.33;;
2892;SDS011;1456;51.840;12.184;2023-05-08T10:20:05;10.60;;;10.40;;
2892;SDS011;1456;51.840;12.184;2023-05-08T10:22:34;10.63;;;10.47;;
2892;SDS011;1456;51.840;12.184;2023-05-08T10:25:01;18.50;;;18.10;;
2892;SDS011;1456;51.840;12.184;2023-05-08T10:27:44;18.60;;;18.20;;
2892;SDS011;1456;51.840;12.184;2023-05-08T10:30:17;19.27;;;18.83;;
2892;SDS011;1456;51.840;12.184;2023-05-08T10:32:48;10.40;;;10.20;;
2892;SDS011;1456;51.840;12.184;2023-05-08T10:35:21;18.70;;;18.30;;
2892;SDS011;1456;51.840;12.184;2023-05-08T10:37:47;18.13;;;17.73;;
2892;SDS011;1456;51.840;12.184;2023-05-08T10:40:13;19.57;;;18.97;;
2892;SDS011;1456;51.840;12.184;2023-05-08T10:42:41;16.80;;;16.40;;
2892;SDS011;1456;51.840;12.184;2023-05-08T10:45:08;10.27;;;10.07;;
2892;SDS011;1456;51.840;12.184;2023-05-08T10:55:41;11.87;;;11.50;;
2892;SDS011;1456;51.840;12.184;2023-05-08T10:58:34;18.67;;;18.17;;
2892;SDS011;1456;51.840;12.184;2023-05-08T11:03:43;17.90;;;17.50;;
2892;SDS011;1456;51.840;12.184;2023-05-08T11:06:09;11.50;;;11.20;;
2892;SDS011;1456;51.840;12.184;2023-05-08T11:08:48;18.67;;;18.27;;
2892;SDS011;1456;51.840;12.184;2023-05-08T11:13:58;19.10;;;18.70;;
2892;SDS011;1456;51.840;12.184;2023-05-08T11:19:22;20.10;;;19.60;;
2892;SDS011;1456;51.840;12.184;2023-05-08T11:24:37;21.27;;;20.77;;
2892;SDS011;1456;51.840;12.184;2023-05-08T11:27:04;11.27;;;11.07;;
2892;SDS011;1456;51.840;12.184;2023-05-08T11:29:30;12.10;;;11.70;;
2892;SDS011;1456;51.840;12.184;2023-05-08T11:31:56;22.10;;;21.50;;
2892;SDS011;1456;51.840;12.184;2023-05-08T11:37:12;22.03;;;21.53;;
2892;SDS011;1456;51.840;12.184;2023-05-08T11:39:43;11.57;;;11.27;;
2892;SDS011;1456;51.840;12.184;2023-05-08T11:45:12;21.53;;;20.93;;
2892;SDS011;1456;51.840;12.184;2023-05-08T11:47:40;11.70;;;11.50;;
2892;SDS011;1456;51.840;12.184;2023-05-08T11:50:08;12.23;;;11.93;;
2892;SDS011;1456;51.840;12.184;2023-05-08T11:52:35;22.77;;;22.17;;
2892;SDS011;1456;51.840;12.184;2023-05-08T11:55:06;22.40;;;21.80;;
2892;SDS011;1456;51.840;12.184;2023-05-08T11:57:33;21.57;;;21.07;;
2892;SDS011;1456;51.840;12.184;2023-05-08T12:00:05;11.70;;;11.50;;
2892;SDS011;1456;51.840;12.184;2023-05-08T12:02:37;22.47;;;21.90;;
2892;SDS011;1456;51.840;12.184;2023-05-08T12:07:43;11.77;;;11.57;;
2892;SDS011;1456;51.840;12.184;2023-05-08T12:10:12;12.00;;;11.63;;
2892;SDS011;1456;51.840;12.184;2023-05-08T12:12:39;21.47;;;20.97;;
2892;SDS011;1456;51.840;12.184;2023-05-08T12:15:08;21.83;;;21.23;;
2892;SDS011;1456;51.840;12.184;2023-05-08T12:17:36;12.30;;;11.97;;
2892;SDS011;1456;51.840;12.184;2023-05-08T12:20:10;22.97;;;22.37;;
2892;SDS011;1456;51.840;12.184;2023-05-08T12:22:40;22.60;;;22.00;;
2892;SDS011;1456;51.840;12.184;2023-05-08T12:25:07;23.40;;;22.80;;
2892;SDS011;1456;51.840;12.184;2023-05-08T12:27:35;12.13;;;11.83;;
2892;SDS011;1456;51.840;12.184;2023-05-08T12:30:06;12.10;;;11.83;;
2892;SDS011;1456;51.840;12.184;2023-05-08T12:32:37;12.43;;;12.13;;
2892;SDS011;1456;51.840;12.184;2023-05-08T12:35:08;11.77;;;11.47;;
2892;SDS011;1456;51.840;12.184;2023-05-08T12:37:36;11.70;;;11.50;;
2892;SDS011;1456;51.840;12.184;2023-05-08T12:40:04;11.87;;;11.57;;
2892;SDS011;1456;51.840;12.184;2023-05-08T12:42:49;11.70;;;11.50;;
2892;SDS011;1456;51.840;12.184;2023-05-08T12:45:25;11.87;;;11.57;;
2892;SDS011;1456;51.840;12.184;2023-05-08T12:47:57;12.57;;;12.27;;
2892;SDS011;1456;51.840;12.184;2023-05-08T12:50:24;12.90;;;12.60;;
2892;SDS011;1456;51.840;12.184;2023-05-08T12:52:50;12.33;;;11.93;;
2892;SDS011;1456;51.840;12.184;2023-05-08T12:55:24;12.90;;;12.60;;
2892;SDS011;1456;51.840;12.184;2023-05-08T12:58:04;12.40;;;12.10;;
2892;SDS011;1456;51.840;12.184;2023-05-08T13:00:34;12.90;;;12.57;;
2892;SDS011;1456;51.840;12.184;2023-05-08T13:03:01;11.60;;;11.40;;
2892;SDS011;1456;51.840;12.184;2023-05-08T13:05:27;12.27;;;11.97;;
2892;SDS011;1456;51.840;12.184;2023-05-08T13:08:04;11.27;;;11.07;;
2892;SDS011;1456;51.840;12.184;2023-05-08T13:13:21;10.90;;;10.70;;
2892;SDS011;1456;51.840;12.184;2023-05-08T13:15:49;11.20;;;11.00;;
2892;SDS011;1456;51.840;12.184;2023-05-08T13:18:16;11.30;;;11.10;;
2892;SDS011;1456;51.840;12.184;2023-05-08T13:20:43;11.70;;;11.50;;
2892;SDS011;1456;51.840;12.184;2023-05-08T13:23:10;11.83;;;11.47;;
2892;SDS011;1456;51.840;12.184;2023-05-08T13:25:37;11.13;;;10.93;;
2892;SDS011;1456;51.840;12.184;2023-05-08T13:28:04;11.40;;;11.20;;
2892;SDS011;1456;51.840;12.184;2023-05-08T13:30:32;11.60;;;11.40;;
2892;SDS011;1456;51.840;12.184;2023-05-08T13:32:59;11.17;;;10.97;;
2892;SDS011;1456;51.840;12.184;2023-05-08T13:35:24;11.20;;;10.83;;
2892;SDS011;1456;51.840;12.184;2023-05-08T13:37:52;11.47;;;11.20;;
2892;SDS011;1456;51.840;12.184;2023-05-08T13:40:18;11.93;;;11.63;;
2892;SDS011;1456;51.840;12.184;2023-05-08T13:42:44;10.47;;;10.37;;
2892;SDS011;1456;51.840;12.184;2023-05-08T13:45:10;11.17;;;10.97;;
2892;SDS011;1456;51.840;12.184;2023-05-08T13:47:38;12.33;;;12.03;;
2892;SDS011;1456;51.840;12.184;2023-05-08T13:50:08;11.40;;;11.20;;
2892;SDS011;1456;51.840;12.184;2023-05-08T13:52:35;13.47;;;12.30;;
2892;SDS011;1456;51.840;12.184;2023-05-08T13:55:02;11.40;;;11.20;;
2892;SDS011;1456;51.840;12.184;2023-05-08T13:57:32;11.53;;;11.33;;
2892;SDS011;1456;51.840;12.184;2023-05-08T14:00:00;11.23;;;11.03;;
2892;SDS011;1456;51.840;12.184;2023-05-08T14:02:27;11.30;;;11.10;;
2892;SDS011;1456;51.840;12.184;2023-05-08T14:04:53;10.90;;;10.70;;
2892;SDS011;1456;51.840;12.184;2023-05-08T14:07:20;11.73;;;11.50;;
2892;SDS011;1456;51.840;12.184;2023-05-08T14:09:46;11.80;;;11.60;;
2892;SDS011;1456;51.840;12.184;2023-05-08T14:12:12;11.80;;;11.60;;
2892;SDS011;1456;51.840;12.184;2023-05-08T14:14:38;12.10;;;11.90;;
2892;SDS011;1456;51.840;12.184;2023-05-08T14:17:05;11.90;;;11.70;;
2892;SDS011;1456;51.840;12.184;2023-05-08T14:19:32;11.63;;;11.43;;
2892;SDS011;1456;51.840;12.184;2023-05-08T14:21:57;12.30;;;11.90;;
2892;SDS011;1456;51.840;12.184;2023-05-08T14:24:26;12.00;;;11.70;;
2892;SDS011;1456;51.840;12.184;2023-05-08T14:26:52;11.20;;;10.90;;
2892;SDS011;1456;51.840;12.184;2023-05-08T14:29:18;12.37;;;12.07;;
2892;SDS011;1456;51.840;12.184;2023-05-08T14:31:44;12.23;;;11.93;;
2892;SDS011;1456;51.840;12.184;2023-05-08T14:34:10;11.43;;;11.23;;
2892;SDS011;1456;51.840;12.184;2023-05-08T14:36:38;11.93;;;11.73;;
2892;SDS011;1456;51.840;12.184;2023-05-08T14:39:05;12.33;;;12.03;;
2892;SDS011;1456;51.840;12.184;2023-05-08T14:41:31;12.30;;;12.00;;
2892;SDS011;1456;51.840;12.184;2023-05-08T14:43:56;11.40;;;11.20;;
2892;SDS011;1456;51.840;12.184;2023-05-08T14:46:23;11.40;;;11.20;;
2892;SDS011;1456;51.840;12.184;2023-05-08T14:48:49;11.83;;;11.63;;
2892;SDS011;1456;51.840;12.184;2023-05-08T14:51:16;12.03;;;11.83;;
2892;SDS011;1456;51.840;12.184;2023-05-08T14:53:43;12.97;;;12.67;;
2892;SDS011;1456;51.840;12.184;2023-05-08T14:56:12;12.00;;;11.70;;
2892;SDS011;1456;51.840;12.184;2023-05-08T14:58:39;12.20;;;11.90;;
2892;SDS011;1456;51.840;12.184;2023-05-08T15:01:07;11.53;;;11.33;;
2892;SDS011;1456;51.840;12.184;2023-05-08T15:03:34;11.73;;;11.53;;
2892;SDS011;1456;51.840;12.184;2023-05-08T15:06:02;11.60;;;11.40;;
2892;SDS011;1456;51.840;12.184;2023-05-08T15:08:30;11.90;;;11.70;;
2892;SDS011;1456;51.840;12.184;2023-05-08T15:10:56;11.53;;;11.33;;
2892;SDS011;1456;51.840;12.184;2023-05-08T15:13:22;11.90;;;11.40;;
2892;SDS011;1456;51.840;12.184;2023-05-08T15:15:48;11.97;;;11.67;;
2892;SDS011;1456;51.840;12.184;2023-05-08T15:18:14;12.30;;;12.00;;
2892;SDS011;1456;51.840;12.184;2023-05-08T15:20:42;11.87;;;11.60;;
2892;SDS011;1456;51.840;12.184;2023-05-08T15:23:08;12.33;;;12.03;;
2892;SDS011;1456;51.840;12.184;2023-05-08T15:25:33;11.93;;;11.73;;
2892;SDS011;1456;51.840;12.184;2023-05-08T15:27:59;11.23;;;11.03;;
2892;SDS011;1456;51.840;12.184;2023-05-08T15:30:24;11.87;;;11.53;;
2892;SDS011;1456;51.840;12.184;2023-05-08T15:32:51;11.43;;;11.23;;
2892;SDS011;1456;51.840;12.184;2023-05-08T15:35:17;11.83;;;11.63;;
2892;SDS011;1456;51.840;12.184;2023-05-08T15:37:42;12.00;;;11.80;;
2892;SDS011;1456;51.840;12.184;2023-05-08T15:40:09;12.30;;;12.10;;
2892;SDS011;1456;51.840;12.184;2023-05-08T15:42:36;13.33;;;12.60;;
2892;SDS011;1456;51.840;12.184;2023-05-08T15:45:02;11.90;;;11.70;;
2892;SDS011;1456;51.840;12.184;2023-05-08T15:47:28;12.20;;;12.00;;
2892;SDS011;1456;51.840;12.184;2023-05-08T15:49:55;12.20;;;11.90;;
2892;SDS011;1456;51.840;12.184;2023-05-08T15:52:21;13.07;;;12.77;;
2892;SDS011;1456;51.840;12.184;2023-05-08T15:54:47;13.23;;;12.73;;
2892;SDS011;1456;51.840;12.184;2023-05-08T15:57:15;12.07;;;11.87;;
2892;SDS011;1456;51.840;12.184;2023-05-08T15:59:43;11.73;;;11.53;;
2892;SDS011;1456;51.840;12.184;2023-05-08T16:02:08;12.00;;;11.80;;
2892;SDS011;1456;51.840;12.184;2023-05-08T16:04:34;11.80;;;11.50;;
2892;SDS011;1456;51.840;12.184;2023-05-08T16:07:00;11.70;;;11.50;;
2892;SDS011;1456;51.840;12.184;2023-05-08T16:09:26;12.70;;;12.03;;
2892;SDS011;1456;51.840;12.184;2023-05-08T16:11:53;11.60;;;11.40;;
2892;SDS011;1456;51.840;12.184;2023-05-08T16:14:19;12.27;;;12.00;;
2892;SDS011;1456;51.840;12.184;2023-05-08T16:16:45;12.80;;;12.50;;
2892;SDS011;1456;51.840;12.184;2023-05-08T16:19:11;12.80;;;12.50;;
2892;SDS011;1456;51.840;12.184;2023-05-08T16:21:38;13.00;;;12.70;;
2892;SDS011;1456;51.840;12.184;2023-05-08T16:24:04;12.53;;;12.20;;